Time;durP1;ratioP1;P1;durP2;ratioP2;P2;SDS_P1;SDS_P2;PMS_P1;PMS_P2;Temp;Humidity;BMP_temperature;BMP_pressure;BME280_temperature;BME280_humidity;BME280_pressure;Samples;Min_cycle;Max_cycle;Signal;HPM_P1;HPM_P2
2022/06/24 00:00:31;;;;;;;1.90;1.30;;;21.10;79.40;;;;;;5051217;28;20128;-71
2022/06/24 00:02:56;;;;;;;1.35;1.25;;;21.20;79.90;;;;;;5034692;28;20037;-71
2022/06/24 00:05:23;;;;;;;1.75;1.50;;;21.10;79.40;;;;;;5034911;28;20036;-71
2022/06/24 00:07:51;;;;;;;1.88;1.40;;;21.10;79.40;;;;;;5034501;28;20044;-71
2022/06/24 00:10:22;;;;;;;1.42;1.27;;;21.00;79.10;;;;;;5051450;28;20045;-71
2022/06/24 00:12:50;;;;;;;1.77;1.13;;;21.00;79.20;;;;;;5051129;28;20094;-71
2022/06/24 00:15:26;;;;;;;1.50;1.35;;;21.00;78.90;;;;;;5051425;28;20056;-71
2022/06/24 00:17:52;;;;;;;5.82;1.58;;;21.00;79.30;;;;;;5051375;28;20132;-71
2022/06/24 00:20:19;;;;;;;1.48;1.23;;;20.90;79.60;;;;;;5051040;28;20049;-71
2022/06/24 00:22:48;;;;;;;2.88;1.60;;;20.90;79.50;;;;;;5034899;28;20049;-71
2022/06/24 00:25:15;;;;;;;2.20;1.60;;;20.80;80.00;;;;;;5034372;28;20072;-71
2022/06/24 00:27:43;;;;;;;1.88;1.40;;;20.70;80.30;;;;;;5051338;28;20480;-71
2022/06/24 00:30:14;;;;;;;1.65;1.27;;;20.70;80.60;;;;;;5034350;28;20041;-71
2022/06/24 00:32:44;;;;;;;1.73;1.23;;;20.60;80.80;;;;;;5050994;28;20041;-71
2022/06/24 00:35:13;;;;;;;2.35;1.58;;;20.60;80.70;;;;;;5051039;28;20045;-71
2022/06/24 00:37:40;;;;;;;2.53;1.60;;;20.50;80.90;;;;;;5051200;28;20105;-71
2022/06/24 00:40:11;;;;;;;4.03;1.42;;;20.50;81.10;;;;;;5034049;28;20091;-71
2022/06/24 00:42:46;;;;;;;2.38;1.42;;;20.40;81.20;;;;;;5050897;28;20053;-71
2022/06/24 00:45:38;;;;;;;1.77;1.55;;;20.30;81.90;;;;;;5034591;28;20041;-72
2022/06/24 00:48:13;;;;;;;6.13;1.73;;;20.30;82.90;;;;;;5051104;28;20124;-71
2022/06/24 00:50:43;;;;;;;1.58;1.30;;;20.10;82.80;;;;;;5054079;28;20047;-71
2022/06/24 00:53:09;;;;;;;2.55;1.50;;;20.10;83.70;;;;;;5054350;28;20037;-71
2022/06/24 00:55:37;;;;;;;3.00;1.52;;;20.00;83.60;;;;;;5037766;28;20094;-71
2022/06/24 00:58:04;;;;;;;1.73;1.40;;;19.90;83.50;;;;;;5054562;28;20037;-71
2022/06/24 01:00:34;;;;;;;2.60;1.50;;;19.80;84.00;;;;;;5054238;28;20128;-71
2022/06/24 01:03:04;;;;;;;2.67;1.35;;;19.70;84.70;;;;;;5054254;28;20041;-71
2022/06/24 01:05:31;;;;;;;;;;;19.70;85.00;;;;;;5054628;28;20087;-71
2022/06/24 01:07:58;;;;;;;2.67;1.55;;;19.50;85.60;;;;;;5054367;28;19923;-71
2022/06/24 01:10:25;;;;;;;1.65;1.55;;;19.50;85.90;;;;;;5054295;28;20084;-71
2022/06/24 01:12:51;;;;;;;2.60;1.40;;;19.30;86.20;;;;;;5054308;28;20067;-71
2022/06/24 01:15:17;;;;;;;2.50;1.80;;;19.20;86.20;;;;;;5054182;28;20484;-71
2022/06/24 01:17:43;;;;;;;2.42;1.83;;;19.20;86.30;;;;;;5053950;28;20087;-71
2022/06/24 01:20:10;;;;;;;3.42;1.75;;;19.10;86.50;;;;;;5053796;28;20072;-72
2022/06/24 01:22:36;;;;;;;1.92;1.42;;;19.10;86.80;;;;;;5053896;28;20057;-71
2022/06/24 01:25:02;;;;;;;3.03;1.80;;;19.10;86.60;;;;;;5037452;28;20041;-71
2022/06/24 01:27:28;;;;;;;1.92;1.27;;;19.00;87.30;;;;;;5037216;28;20123;-71
2022/06/24 01:29:54;;;;;;;2.85;1.50;;;18.90;87.20;;;;;;5054011;28;20052;-71
2022/06/24 01:32:20;;;;;;;2.70;1.55;;;18.90;87.40;;;;;;5053887;28;20041;-71
2022/06/24 01:34:46;;;;;;;2.10;1.45;;;18.90;87.60;;;;;;5037247;28;20086;-71
2022/06/24 01:37:12;;;;;;;2.03;1.45;;;18.90;87.80;;;;;;5053851;28;20060;-71
2022/06/24 01:39:38;;;;;;;3.00;1.70;;;18.90;88.50;;;;;;5053249;28;20049;-71
2022/06/24 01:42:05;;;;;;;1.58;1.27;;;18.80;88.70;;;;;;5036892;28;20041;-71
2022/06/24 01:44:30;;;;;;;1.73;1.20;;;18.80;88.60;;;;;;5053435;28;20071;-71
2022/06/24 01:46:56;;;;;;;2.08;1.42;;;18.70;88.50;;;;;;5037114;28;20041;-71
2022/06/24 01:49:22;;;;;;;1.52;1.42;;;18.70;88.20;;;;;;5053656;28;20055;-71
2022/06/24 01:51:50;;;;;;;1.95;1.35;;;18.70;88.40;;;;;;5036650;28;20037;-71
2022/06/24 01:54:16;;;;;;;2.00;1.50;;;18.70;88.80;;;;;;5053265;28;20040;-71
2022/06/24 01:56:42;;;;;;;2.08;1.60;;;18.70;89.10;;;;;;5053269;28;20041;-71
2022/06/24 01:59:08;;;;;;;2.33;1.40;;;18.60;89.00;;;;;;5053275;28;20495;-71
2022/06/24 02:01:33;;;;;;;3.55;1.88;;;18.60;89.60;;;;;;5053287;28;20052;-71
2022/06/24 02:03:59;;;;;;;2.65;1.60;;;18.60;89.70;;;;;;5036477;28;20098;-71
2022/06/24 02:06:25;;;;;;;2.67;1.67;;;18.50;90.00;;;;;;5036439;28;20037;-71
2022/06/24 02:08:51;;;;;;;2.83;1.90;;;18.50;90.20;;;;;;5036576;28;20105;-71
2022/06/24 02:14:05;;;;;;;2.25;1.67;;;18.40;90.40;;;;;;5039145;28;20048;-72
2022/06/24 02:16:31;;;;;;;3.33;1.65;;;18.40;90.40;;;;;;5053101;28;20511;-71
2022/06/24 02:18:57;;;;;;;3.03;1.60;;;18.40;90.30;;;;;;5052690;28;20052;-71
2022/06/24 02:21:24;;;;;;;1.70;1.30;;;18.40;90.50;;;;;;5052712;28;20070;-72
2022/06/24 02:23:51;;;;;;;1.80;1.35;;;18.40;90.70;;;;;;5052621;28;20079;-72
2022/06/24 02:26:17;;;;;;;1.65;1.45;;;18.30;90.70;;;;;;5052663;28;20055;-71
2022/06/24 02:28:42;;;;;;;1.80;1.45;;;18.30;90.70;;;;;;5036111;28;20072;-72
2022/06/24 02:31:08;;;;;;;1.90;1.27;;;18.20;90.80;;;;;;5052785;28;20083;-71
2022/06/24 02:33:34;;;;;;;2.45;1.73;;;18.20;91.10;;;;;;5052467;28;20048;-72
2022/06/24 02:36:00;;;;;;;3.97;1.38;;;17.80;91.20;;;;;;5035837;28;20041;-72
2022/06/24 02:38:26;;;;;;;2.42;1.75;;;18.00;91.50;;;;;;5052125;28;20072;-71
2022/06/24 02:40:52;;;;;;;2.97;1.70;;;18.00;91.60;;;;;;5052593;28;20045;-71
2022/06/24 02:43:28;;;;;;;2.97;1.83;;;18.00;91.90;;;;;;5036030;28;20503;-72
2022/06/24 02:45:58;;;;;;;2.60;1.73;;;18.30;92.10;;;;;;5052254;28;20052;-71
2022/06/24 02:48:24;;;;;;;4.07;2.00;;;18.00;92.20;;;;;;5052474;28;20044;-71
2022/06/24 02:50:53;;;;;;;2.92;1.63;;;17.90;92.00;;;;;;5052448;28;20036;-71
2022/06/24 02:53:20;;;;;;;2.58;1.83;;;17.90;92.00;;;;;;5052182;28;20049;-71
2022/06/24 02:55:50;;;;;;;3.67;1.88;;;17.90;92.50;;;;;;5052001;28;20044;-71
2022/06/24 02:58:16;;;;;;;3.15;1.70;;;17.90;92.50;;;;;;5052076;28;20389;-71
2022/06/24 03:00:42;;;;;;;3.28;2.33;;;17.90;92.70;;;;;;5051957;28;20039;-71
2022/06/24 03:03:09;;;;;;;2.95;1.60;;;17.90;92.60;;;;;;5035341;28;20040;-71
2022/06/24 03:05:34;;;;;;;2.28;1.55;;;18.00;92.60;;;;;;5052215;28;20472;-71
2022/06/24 03:08:01;;;;;;;1.73;1.52;;;18.00;93.20;;;;;;5019055;28;20040;-71
2022/06/24 03:10:26;;;;;;;2.95;2.00;;;18.10;92.90;;;;;;5051878;28;20040;-71
2022/06/24 03:12:52;;;;;;;3.05;1.90;;;18.10;92.80;;;;;;5034909;28;20051;-72
2022/06/24 03:15:18;;;;;;;3.83;2.15;;;18.20;92.70;;;;;;5035219;28;20041;-71
2022/06/24 03:17:44;;;;;;;4.18;2.10;;;18.10;92.90;;;;;;5035411;28;20055;-71
2022/06/24 03:20:10;;;;;;;4.30;2.05;;;18.20;92.80;;;;;;5051626;28;20041;-71
2022/06/24 03:22:36;;;;;;;2.15;1.88;;;18.20;93.10;;;;;;5051692;28;20086;-71
2022/06/24 03:25:04;;;;;;;3.25;1.95;;;18.30;93.10;;;;;;5051620;28;20044;-71
2022/06/24 03:27:29;;;;;;;3.35;1.83;;;18.30;93.70;;;;;;5051590;28;20075;-71
2022/06/24 03:29:55;;;;;;;3.22;1.95;;;18.30;93.80;;;;;;5051560;28;20095;-70
2022/06/24 03:32:21;;;;;;;3.08;2.25;;;18.30;93.50;;;;;;5035186;28;20100;-71
2022/06/24 03:34:47;;;;;;;3.08;2.50;;;18.30;94.50;;;;;;5034926;28;20045;-70
2022/06/24 03:37:13;;;;;;;5.47;2.00;;;18.40;93.80;;;;;;5051513;28;20489;-71
2022/06/24 03:39:39;;;;;;;2.83;2.10;;;18.40;93.90;;;;;;5051362;28;20053;-71
2022/06/24 03:42:05;;;;;;;3.83;2.10;;;18.40;93.80;;;;;;5051561;28;20048;-70
2022/06/24 03:44:31;;;;;;;2.80;2.00;;;18.40;93.40;;;;;;5051741;28;20389;-71
2022/06/24 03:46:57;;;;;;;2.20;1.67;;;18.40;93.70;;;;;;5051381;28;20043;-70
2022/06/24 03:49:23;;;;;;;3.08;1.85;;;18.40;94.70;;;;;;5034849;28;20041;-70
2022/06/24 03:51:48;;;;;;;3.53;1.98;;;16.90;93.90;;;;;;5051364;28;20131;-70
2022/06/24 03:54:15;;;;;;;2.65;1.63;;;18.50;93.90;;;;;;5051377;28;20128;-71
2022/06/24 03:56:40;;;;;;;2.63;2.00;;;18.50;94.40;;;;;;5051584;28;20442;-70
2022/06/24 03:59:06;;;;;;;2.85;1.92;;;18.50;93.80;;;;;;5051218;28;20041;-70
2022/06/24 04:01:32;;;;;;;3.67;2.10;;;18.50;94.10;;;;;;5034678;28;20072;-71
2022/06/24 04:03:57;;;;;;;2.10;1.58;;;18.50;94.20;;;;;;5051279;28;20053;-71
2022/06/24 04:06:23;;;;;;;3.97;2.05;;;18.60;94.30;;;;;;5018224;28;20127;-70
2022/06/24 04:08:49;;;;;;;2.85;1.90;;;18.60;94.20;;;;;;5051206;28;20055;-70
2022/06/24 04:11:16;;;;;;;2.95;1.85;;;18.60;94.10;;;;;;5051471;28;20056;-70
2022/06/24 04:13:42;;;;;;;2.17;1.85;;;18.60;94.20;;;;;;5051183;28;20125;-71
2022/06/24 04:16:07;;;;;;;3.20;1.73;;;18.70;94.40;;;;;;5051472;28;20087;-70
2022/06/24 04:18:34;;;;;;;3.03;1.80;;;18.70;94.40;;;;;;5051364;28;20084;-70
2022/06/24 04:21:00;;;;;;;3.20;1.75;;;18.80;94.50;;;;;;5034488;28;20041;-71
2022/06/24 04:23:26;;;;;;;2.63;1.98;;;18.80;95.30;;;;;;5034477;28;20123;-70
2022/06/24 04:25:52;;;;;;;3.78;1.92;;;18.90;94.70;;;;;;5038086;28;20117;-70
2022/06/24 04:28:18;;;;;;;3.85;1.83;;;19.00;94.40;;;;;;5055170;28;20076;-70
2022/06/24 04:30:44;;;;;;;2.28;1.70;;;19.00;94.50;;;;;;5038249;28;20037;-70
2022/06/24 04:33:10;;;;;;;3.20;2.17;;;19.00;94.10;;;;;;5055044;28;20044;-70
2022/06/24 04:35:36;;;;;;;2.85;2.05;;;19.10;94.40;;;;;;5055978;28;20048;-71
2022/06/24 04:38:02;;;;;;;1.88;1.65;;;19.20;94.80;;;;;;5021816;28;20032;-71
2022/06/24 04:40:28;;;;;;;2.78;1.70;;;19.20;94.20;;;;;;5054580;28;20045;-71
2022/06/24 04:42:54;;;;;;;3.00;1.98;;;19.20;94.50;;;;;;5054634;28;20153;-71
2022/06/24 04:45:19;;;;;;;2.78;2.13;;;19.30;94.70;;;;;;5038020;28;20049;-71
2022/06/24 04:47:45;;;;;;;4.10;1.90;;;19.40;95.00;;;;;;5054522;28;20120;-70
2022/06/24 04:50:11;;;;;;;1.55;1.45;;;19.40;94.80;;;;;;5054504;28;20052;-71
2022/06/24 04:52:38;;;;;;;2.83;1.80;;;19.50;94.30;;;;;;5037873;28;20492;-71
2022/06/24 04:55:06;;;;;;;2.63;1.38;;;19.60;94.50;;;;;;5037930;28;20114;-71
2022/06/24 04:57:31;;;;;;;2.97;1.70;;;19.60;94.50;;;;;;5038269;28;20045;-71
2022/06/24 04:59:59;;;;;;;2.92;1.90;;;19.70;94.50;;;;;;5038148;28;20122;-71
2022/06/24 05:02:24;;;;;;;4.93;1.63;;;19.70;95.00;;;;;;5054272;28;20040;-71
2022/06/24 05:04:50;;;;;;;2.03;1.52;;;19.70;94.80;;;;;;5054411;28;20072;-70
2022/06/24 05:07:16;;;;;;;2.92;1.88;;;19.70;95.00;;;;;;5054158;28;20405;-71
2022/06/24 05:09:42;;;;;;;2.60;2.15;;;19.80;95.10;;;;;;5054125;28;20071;-71
2022/06/24 05:12:08;;;;;;;4.65;1.83;;;19.80;94.60;;;;;;5037441;28;20036;-71
2022/06/24 05:14:34;;;;;;;3.33;1.98;;;19.80;94.80;;;;;;5037457;28;20041;-70
2022/06/24 05:17:01;;;;;;;2.08;1.77;;;20.00;95.00;;;;;;5037387;28;20059;-71
2022/06/24 05:19:26;;;;;;;2.50;1.90;;;20.00;95.40;;;;;;5053808;28;20045;-71
2022/06/24 05:21:52;;;;;;;3.35;2.53;;;20.10;95.80;;;;;;5037286;28;20037;-71
2022/06/24 05:24:18;;;;;;;3.53;2.40;;;20.20;96.00;;;;;;5037332;28;20052;-71
2022/06/24 05:26:44;;;;;;;6.63;3.53;;;20.40;97.40;;;;;;5037517;28;20036;-71
2022/06/24 05:29:10;;;;;;;6.70;3.13;;;20.50;98.80;;;;;;5053693;28;20098;-71
2022/06/24 05:31:37;;;;;;;3.72;2.95;;;20.60;99.30;;;;;;5037127;28;20161;-69
2022/06/24 05:34:03;;;;;;;7.43;3.75;;;20.70;99.90;;;;;;5053674;28;20123;-71
2022/06/24 05:36:29;;;;;;;4.82;3.03;;;20.70;99.90;;;;;;5053309;28;20095;-69
2022/06/24 05:38:54;;;;;;;4.97;3.47;;;20.70;99.90;;;;;;5053401;28;20053;-74
2022/06/24 05:41:20;;;;;;;4.10;3.03;;;20.70;99.90;;;;;;5037004;28;20044;-69
2022/06/24 05:43:46;;;;;;;5.82;3.33;;;20.60;99.90;;;;;;5053486;28;20094;-69
2022/06/24 05:46:13;;;;;;;6.90;3.90;;;20.60;99.90;;;;;;5053445;28;20037;-70
2022/06/24 05:48:39;;;;;;;5.22;3.67;;;20.60;99.90;;;;;;5053415;28;20115;-70
2022/06/24 05:51:12;;;;;;;6.03;3.72;;;20.50;99.90;;;;;;5036728;28;20041;-70
2022/06/24 05:56:23;;;;;;;6.35;3.47;;;20.40;99.90;;;;;;5053282;28;20049;-69
2022/06/24 05:58:50;;;;;;;5.57;3.88;;;20.30;99.90;;;;;;5053036;28;20063;-69
2022/06/24 06:01:16;;;;;;;5.32;3.65;;;20.20;99.90;;;;;;5054694;28;20076;-69
2022/06/24 06:03:42;;;;;;;6.53;3.90;;;20.00;99.90;;;;;;5053464;28;20468;-69
2022/06/24 06:06:09;;;;;;;8.32;4.45;;;19.90;99.90;;;;;;5054395;28;20045;-70
2022/06/24 06:08:36;;;;;;;10.73;4.15;;;19.80;99.90;;;;;;5053055;28;20037;-70
2022/06/24 06:11:09;;;;;;;5.07;3.70;;;19.70;99.90;;;;;;5052992;28;20044;-70
2022/06/24 06:13:34;;;;;;;11.88;4.53;;;19.70;99.90;;;;;;5052975;28;20119;-72
2022/06/24 06:16:00;;;;;;;6.93;4.78;;;19.70;99.90;;;;;;5036304;28;20146;-70
2022/06/24 06:18:26;;;;;;;9.23;4.63;;;19.70;99.90;;;;;;5053082;28;20045;-72
2022/06/24 06:20:51;;;;;;;6.22;4.60;;;19.70;99.90;;;;;;5052814;28;20093;-76
2022/06/24 06:23:17;;;;;;;7.60;4.43;;;19.70;99.90;;;;;;5019643;28;20048;-72
2022/06/24 06:25:43;;;;;;;9.40;4.88;;;19.70;99.90;;;;;;5036435;28;20464;-71
2022/06/24 06:28:08;;;;;;;8.23;4.82;;;19.80;99.90;;;;;;5052913;28;20040;-74
2022/06/24 06:30:34;;;;;;;7.63;4.85;;;19.80;99.90;;;;;;5052783;28;20077;-71
2022/06/24 06:33:00;;;;;;;9.18;4.80;;;19.80;99.90;;;;;;5035984;28;20045;-72
2022/06/24 06:35:25;;;;;;;9.98;5.20;;;19.80;99.90;;;;;;5052529;28;20551;-71
2022/06/24 06:37:51;;;;;;;7.65;4.93;;;19.90;99.90;;;;;;5036078;28;20438;-70
2022/06/24 06:40:17;;;;;;;7.80;5.00;;;20.00;99.90;;;;;;5052086;28;20088;-71
2022/06/24 06:42:42;;;;;;;6.15;4.55;;;20.00;99.90;;;;;;5052517;28;20055;-71
2022/06/24 06:45:08;;;;;;;9.18;4.97;;;20.00;99.90;;;;;;5019192;28;20037;-71
2022/06/24 06:47:34;;;;;;;7.47;4.68;;;20.10;99.90;;;;;;5018604;28;20043;-70
2022/06/24 06:50:00;;;;;;;5.10;4.05;;;20.10;99.90;;;;;;5035861;28;20423;-70
2022/06/24 06:52:26;;;;;;;6.07;4.18;;;20.10;99.90;;;;;;5035499;28;20036;-71
2022/06/24 06:54:51;;;;;;;8.70;5.03;;;20.00;99.90;;;;;;5035441;28;20103;-71
2022/06/24 06:57:17;;;;;;;8.07;5.00;;;19.90;99.90;;;;;;5035350;28;20041;-71
2022/06/24 06:59:43;;;;;;;7.97;4.60;;;19.90;99.90;;;;;;5035485;28;20047;-71
2022/06/24 07:02:08;;;;;;;5.15;3.28;;;19.90;99.90;;;;;;5052052;28;20044;-71
2022/06/24 07:04:34;;;;;;;7.57;4.15;;;19.90;99.90;;;;;;5052163;28;20814;-70
2022/06/24 07:07:00;;;;;;;8.85;4.32;;;19.80;99.90;;;;;;5051783;28;20037;-70
2022/06/24 07:09:25;;;;;;;7.82;4.45;;;19.80;99.90;;;;;;5035430;28;20045;-70
2022/06/24 07:11:53;;;;;;;6.38;3.88;;;19.80;99.90;;;;;;5052027;28;20049;-70
2022/06/24 07:14:19;;;;;;;7.68;4.53;;;19.80;99.90;;;;;;5035058;28;20059;-71
2022/06/24 07:16:44;;;;;;;7.85;4.00;;;19.70;99.90;;;;;;5019064;28;20041;-70
2022/06/24 07:19:10;;;;;;;8.32;4.10;;;19.80;99.90;;;;;;5018546;28;20092;-70
2022/06/24 07:21:36;;;;;;;7.35;4.30;;;19.70;99.90;;;;;;5051953;28;20382;-70
2022/06/24 07:24:01;;;;;;;5.88;3.97;;;19.70;99.90;;;;;;5035401;28;20048;-70
2022/06/24 07:26:27;;;;;;;5.57;3.72;;;19.70;99.90;;;;;;5051710;28;20040;-71
2022/06/24 07:28:53;;;;;;;5.85;3.25;;;19.80;99.90;;;;;;5035427;28;20083;-70
2022/06/24 07:31:20;;;;;;;4.82;3.10;;;19.70;99.90;;;;;;5035105;28;20055;-70
2022/06/24 07:33:46;;;;;;;5.40;2.90;;;19.70;99.90;;;;;;5035223;28;20136;-70
2022/06/24 07:36:12;;;;;;;5.95;3.38;;;19.70;99.90;;;;;;5051975;28;20051;-70
2022/06/24 07:38:38;;;;;;;6.20;3.20;;;19.70;99.90;;;;;;5051282;28;20061;-70
2022/06/24 07:41:04;;;;;;;7.13;3.40;;;19.70;99.90;;;;;;5051508;28;20049;-70
2022/06/24 07:43:30;;;;;;;4.72;2.60;;;19.70;99.90;;;;;;5034875;28;20114;-70
2022/06/24 07:45:56;;;;;;;5.10;3.63;;;19.70;99.90;;;;;;5051447;28;20041;-70
2022/06/24 07:48:22;;;;;;;4.47;2.70;;;19.70;99.90;;;;;;5051470;28;20396;-71
2022/06/24 07:50:48;;;;;;;4.75;3.13;;;19.70;99.90;;;;;;5034782;28;20037;-70
2022/06/24 07:53:14;;;;;;;4.22;3.03;;;19.60;99.90;;;;;;5051343;28;20500;-72
2022/06/24 07:58:24;;;;;;;5.78;3.53;;;19.70;99.90;;;;;;5038628;28;20103;-71
2022/06/24 08:00:50;;;;;;;5.07;2.80;;;19.70;99.90;;;;;;5038780;28;20126;-71
2022/06/24 08:03:16;;;;;;;3.75;2.88;;;19.70;99.90;;;;;;5055715;28;20045;-71
2022/06/24 08:05:42;;;;;;;6.50;3.20;;;19.70;99.90;;;;;;5038959;28;20037;-71
2022/06/24 08:08:08;;;;;;;5.15;3.10;;;19.70;99.90;;;;;;5038932;28;20029;-71
2022/06/24 08:10:34;;;;;;;5.82;3.33;;;19.80;99.90;;;;;;5038674;28;20044;-71
2022/06/24 08:13:00;;;;;;;4.88;3.50;;;19.90;99.90;;;;;;5055195;28;20045;-71
2022/06/24 08:15:26;;;;;;;3.60;2.80;;;19.90;99.90;;;;;;5038569;28;20107;-72
2022/06/24 08:17:52;;;;;;;5.50;3.05;;;20.00;99.90;;;;;;5055088;28;20052;-71
2022/06/24 08:20:18;;;;;;;4.85;3.70;;;20.00;99.90;;;;;;5038401;28;20068;-71
2022/06/24 08:22:43;;;;;;;4.72;2.85;;;20.10;99.90;;;;;;5022014;28;20053;-71
2022/06/24 08:25:09;;;;;;;3.92;2.85;;;20.10;99.90;;;;;;5054888;28;20040;-71
2022/06/24 08:27:35;;;;;;;4.70;2.88;;;20.10;99.90;;;;;;5054849;28;20072;-71
2022/06/24 08:30:03;;;;;;;6.22;2.88;;;20.20;99.90;;;;;;5038343;28;20074;-71
2022/06/24 08:32:29;;;;;;;3.63;2.75;;;20.20;99.90;;;;;;5055099;28;20053;-71
2022/06/24 08:34:55;;;;;;;4.05;2.75;;;20.30;99.90;;;;;;5055034;28;20522;-71
2022/06/24 08:37:21;;;;;;;5.78;2.60;;;20.30;99.90;;;;;;5038133;28;20404;-71
2022/06/24 08:39:47;;;;;;;3.72;3.08;;;20.40;99.90;;;;;;5054527;28;20060;-71
2022/06/24 08:42:13;;;;;;;3.75;2.65;;;20.40;99.90;;;;;;5055018;28;20415;-71
2022/06/24 08:44:40;;;;;;;2.25;2.00;;;20.40;99.90;;;;;;5054953;28;20045;-71
2022/06/24 08:47:12;;;;;;;3.17;2.53;;;20.30;99.90;;;;;;5054570;28;20102;-71
2022/06/24 08:49:38;;;;;;;4.07;2.50;;;20.30;99.90;;;;;;5038160;28;20045;-71
2022/06/24 08:52:08;;;;;;;3.38;2.45;;;20.30;99.90;;;;;;5054895;28;20040;-71
2022/06/24 08:54:35;;;;;;;4.38;2.47;;;20.30;99.90;;;;;;5037782;28;20045;-71
2022/06/24 08:57:01;;;;;;;4.40;2.40;;;20.20;99.90;;;;;;5037756;28;20076;-72
2022/06/24 08:59:29;;;;;;;5.70;2.60;;;20.10;99.90;;;;;;5037890;28;20515;-71
2022/06/24 09:01:54;;;;;;;4.22;2.53;;;20.10;99.90;;;;;;5038102;28;20106;-71
2022/06/24 09:04:24;;;;;;;3.30;2.25;;;20.00;99.90;;;;;;5054266;28;20029;-71
2022/06/24 09:06:50;;;;;;;5.47;2.88;;;20.00;99.90;;;;;;5054166;28;20051;-71
2022/06/24 09:09:26;;;;;;;3.45;2.08;;;20.00;99.90;;;;;;5037411;28;20041;-71
2022/06/24 09:11:55;;;;;;;5.15;2.55;;;20.10;99.90;;;;;;5037680;28;20524;-70
2022/06/24 09:14:20;;;;;;;2.28;1.83;;;20.10;99.90;;;;;;5054151;28;20131;-72
2022/06/24 09:16:46;;;;;;;3.92;2.55;;;20.10;99.90;;;;;;5037376;28;20119;-71
2022/06/24 09:19:15;;;;;;;2.80;2.15;;;20.20;99.90;;;;;;5037287;28;20041;-71
2022/06/24 09:21:42;;;;;;;3.60;2.35;;;20.20;99.90;;;;;;5037315;28;20048;-71
2022/06/24 09:24:09;;;;;;;3.40;2.30;;;20.10;99.90;;;;;;5037142;28;20033;-72
2022/06/24 09:26:41;;;;;;;3.20;2.20;;;20.10;99.90;;;;;;5053836;28;20040;-72
2022/06/24 09:29:14;;;;;;;3.72;2.50;;;20.10;99.90;;;;;;5037143;28;20044;-71
2022/06/24 09:31:40;;;;;;;4.30;2.45;;;20.10;99.90;;;;;;5053719;28;20077;-71
2022/06/24 09:34:12;;;;;;;4.47;2.60;;;20.20;99.90;;;;;;5053870;28;20557;-69
2022/06/24 09:36:39;;;;;;;3.00;2.30;;;20.30;99.90;;;;;;5037041;28;20130;-69
2022/06/24 09:39:08;;;;;;;3.17;2.15;;;20.50;99.90;;;;;;5036781;28;20080;-69
2022/06/24 09:41:43;;;;;;;3.72;2.38;;;20.60;99.90;;;;;;5053587;28;20048;-72
2022/06/24 09:44:09;;;;;;;3.30;2.42;;;20.70;99.90;;;;;;5053742;28;20481;-70
2022/06/24 09:46:35;;;;;;;3.67;2.40;;;20.70;99.90;;;;;;5053785;28;20032;-70
2022/06/24 09:49:03;;;;;;;3.08;2.30;;;20.60;99.90;;;;;;5054683;28;20120;-71
2022/06/24 09:51:29;;;;;;;3.53;2.22;;;20.60;99.90;;;;;;5053363;28;20051;-69
2022/06/24 09:53:55;;;;;;;3.30;2.63;;;20.60;99.90;;;;;;5036763;28;20041;-69
2022/06/24 09:56:22;;;;;;;3.22;2.40;;;20.50;99.90;;;;;;5053545;28;20502;-69
2022/06/24 10:01:35;;;;;;;3.03;2.63;;;20.40;99.90;;;;;;5054461;28;20052;-69
2022/06/24 10:04:03;;;;;;;2.78;2.17;;;20.30;99.90;;;;;;5053387;28;20449;-71
2022/06/24 10:06:35;;;;;;;2.22;1.75;;;20.20;99.90;;;;;;5036604;28;20044;-70
2022/06/24 10:09:04;;;;;;;3.40;2.45;;;20.00;99.90;;;;;;5036473;28;20084;-70
2022/06/24 10:11:35;;;;;;;4.43;2.13;;;19.90;99.90;;;;;;5053063;28;20136;-70
2022/06/24 10:14:01;;;;;;;3.47;2.40;;;19.70;99.90;;;;;;5052962;28;20037;-70
2022/06/24 10:16:27;;;;;;;3.13;1.90;;;19.50;99.90;;;;;;5036382;28;20049;-71
2022/06/24 10:18:55;;;;;;;5.03;1.02;;;19.30;99.90;;;;;;5036206;28;20094;-70
2022/06/24 10:21:21;;;;;;;1.40;1.00;;;19.10;99.90;;;;;;5052257;28;20041;-71
2022/06/24 10:23:47;;;;;;;0.93;0.82;;;18.80;99.90;;;;;;5019376;28;20132;-71
2022/06/24 10:26:31;;;;;;;2.03;1.17;;;18.60;99.90;;;;;;5036135;28;20531;-72
2022/06/24 10:28:59;;;;;;;2.03;1.40;;;18.50;99.90;;;;;;5052707;28;20036;-71
2022/06/24 10:31:37;;;;;;;3.50;1.35;;;18.40;99.90;;;;;;5052901;28;20123;-70
2022/06/24 10:34:03;;;;;;;3.28;1.73;;;18.30;99.90;;;;;;5052542;28;20041;-72
2022/06/24 10:36:33;;;;;;;2.70;1.90;;;18.20;99.90;;;;;;5052443;28;20051;-71
2022/06/24 10:39:16;;;;;;;1.88;1.52;;;18.20;99.90;;;;;;5052442;28;20399;-71
2022/06/24 10:41:44;;;;;;;3.60;1.95;;;18.20;99.90;;;;;;5052390;28;20041;-71
2022/06/24 10:44:31;;;;;;;2.60;1.73;;;18.20;99.90;;;;;;5052459;28;20119;-72
2022/06/24 10:47:08;;;;;;;3.85;1.85;;;18.20;99.90;;;;;;5035663;28;20079;-72
2022/06/24 10:50:11;;;;;;;2.95;2.00;;;18.20;99.90;;;;;;5052268;28;20045;-71
2022/06/24 10:52:51;;;;;;;3.83;1.90;;;18.20;99.90;;;;;;5021676;28;20156;-74
2022/06/24 10:55:34;;;;;;;3.42;1.95;;;18.20;99.90;;;;;;5052498;28;20072;-73
2022/06/24 10:58:12;;;;;;;2.35;1.52;;;18.20;99.90;;;;;;5035439;28;20081;-73
2022/06/24 11:00:37;;;;;;;2.13;1.52;;;18.20;99.90;;;;;;5035524;28;20037;-73
2022/06/24 11:03:03;;;;;;;2.75;1.73;;;18.10;99.90;;;;;;5035428;28;20048;-73
2022/06/24 11:05:37;;;;;;;1.48;1.38;;;18.00;99.90;;;;;;5052021;28;20126;-73
2022/06/24 11:08:11;;;;;;;2.03;1.48;;;17.90;99.90;;;;;;5051972;28;20045;-73
2022/06/24 11:10:37;;;;;;;1.58;1.17;;;17.90;99.90;;;;;;5052152;28;20127;-73
2022/06/24 11:13:03;;;;;;;1.67;1.05;;;17.70;99.90;;;;;;5052223;28;20137;-73
2022/06/24 11:15:59;;;;;;;1.85;1.10;;;17.60;99.90;;;;;;5052134;28;20067;-73
2022/06/24 11:18:34;;;;;;;1.65;1.23;;;17.50;99.90;;;;;;5022909;28;20091;-72
2022/06/24 11:21:02;;;;;;;2.75;1.50;;;17.40;99.90;;;;;;5051715;28;20076;-73
2022/06/24 11:23:33;;;;;;;2.20;1.15;;;17.40;99.90;;;;;;5051722;28;20069;-73
2022/06/24 11:26:09;;;;;;;1.90;1.33;;;17.40;99.90;;;;;;5051657;28;20124;-73
2022/06/24 11:28:37;;;;;;;1.00;0.88;;;17.30;99.90;;;;;;5051659;28;20144;-73
2022/06/24 11:31:29;;;;;;;1.50;1.13;;;17.30;99.90;;;;;;5051703;28;20139;-73
2022/06/24 11:34:04;;;;;;;2.25;1.20;;;17.30;99.90;;;;;;5051365;28;20048;-73
2022/06/24 11:36:33;;;;;;;1.83;1.00;;;17.30;99.90;;;;;;5035099;28;20037;-73
2022/06/24 11:39:01;;;;;;;1.33;1.00;;;17.40;99.90;;;;;;5018490;28;20567;-72
2022/06/24 11:41:28;;;;;;;1.17;1.08;;;17.40;99.90;;;;;;5035139;28;20049;-72
2022/06/24 11:43:54;;;;;;;1.45;1.08;;;17.40;99.90;;;;;;5051845;28;20095;-72
2022/06/24 11:46:21;;;;;;;2.80;1.85;;;17.50;99.90;;;;;;5051497;28;20037;-73
2022/06/24 11:48:46;;;;;;;1.48;1.20;;;17.50;99.90;;;;;;5051483;28;20126;-72
2022/06/24 11:51:23;;;;;;;1.55;1.02;;;17.60;99.90;;;;;;5051448;28;20033;-72
2022/06/24 11:53:57;;;;;;;2.70;1.35;;;17.70;99.90;;;;;;5051655;28;20087;-72
2022/06/24 11:56:27;;;;;;;1.60;1.15;;;17.70;99.90;;;;;;5034727;28;20123;-73
2022/06/24 11:58:53;;;;;;;2.08;1.40;;;17.70;99.90;;;;;;5018759;28;20068;-72
2022/06/24 12:01:19;;;;;;;2.55;1.10;;;17.80;99.90;;;;;;5052671;28;20037;-72
2022/06/24 12:03:47;;;;;;;2.60;1.10;;;17.90;99.90;;;;;;5034795;28;20064;-72
2022/06/24 12:06:13;;;;;;;1.85;1.40;;;17.90;99.90;;;;;;5034992;28;20390;-72
2022/06/24 12:08:39;;;;;;;3.25;1.10;;;18.00;99.90;;;;;;5035069;28;20044;-81
2022/06/24 12:11:14;;;;;;;1.85;0.85;;;18.10;99.90;;;;;;5035581;28;20044;-80
2022/06/24 12:13:41;;;;;;;7.45;1.50;;;18.10;99.90;;;;;;5052552;28;20045;-83
2022/06/24 12:16:07;;;;;;;2.15;1.15;;;18.00;99.90;;;;;;5036075;28;20134;-80
2022/06/24 12:18:34;;;;;;;2.20;1.10;;;18.00;99.90;;;;;;5035074;28;20522;-73
2022/06/24 12:21:06;;;;;;;2.22;1.20;;;18.10;99.90;;;;;;5051223;28;20037;-73
2022/06/24 12:23:37;;;;;;;3.13;1.30;;;18.10;99.90;;;;;;5051455;28;20393;-73
2022/06/24 12:26:13;;;;;;;2.05;1.30;;;18.10;99.90;;;;;;5051094;28;20064;-76
2022/06/24 12:28:39;;;;;;;1.80;1.40;;;18.20;99.90;;;;;;5034796;28;20040;-73
2022/06/24 12:31:09;;;;;;;2.53;1.67;;;18.30;99.90;;;;;;5051053;28;20041;-73
2022/06/24 12:33:44;;;;;;;2.40;1.60;;;18.50;99.90;;;;;;5051103;28;20053;-73
2022/06/24 12:36:15;;;;;;;2.03;1.58;;;18.70;99.90;;;;;;5051291;28;20045;-73
2022/06/24 12:38:56;;;;;;;2.08;1.20;;;18.90;99.90;;;;;;5034129;28;20125;-73
2022/06/24 12:41:23;;;;;;;3.20;2.00;;;19.10;99.90;;;;;;5034437;28;20041;-72
2022/06/24 12:44:03;;;;;;;2.22;1.70;;;19.30;99.90;;;;;;5050960;28;20037;-73
2022/06/24 12:52:08;;;;;;;4.80;2.70;;;19.60;99.90;;;;;;5054545;28;20045;-72
2022/06/24 12:54:34;;;;;;;5.22;3.08;;;19.60;99.90;;;;;;5037968;28;20037;-72
2022/06/24 12:56:59;;;;;;;3.95;3.00;;;19.70;99.90;;;;;;5054416;28;20063;-72
2022/06/24 12:59:29;;;;;;;4.18;3.08;;;19.80;99.90;;;;;;5054441;28;20041;-72
2022/06/24 13:01:55;;;;;;;4.70;3.20;;;19.90;99.90;;;;;;5054665;28;20136;-72
2022/06/24 13:04:21;;;;;;;5.97;3.90;;;20.00;99.90;;;;;;5054633;28;20145;-72
2022/06/24 13:06:46;;;;;;;6.75;4.00;;;20.00;99.90;;;;;;5037940;28;20037;-72